Time;durP1;ratioP1;P1;durP2;ratioP2;P2;SDS_P1;SDS_P2;PMS_P1;PMS_P2;Temp;Humidity;BMP_temperature;BMP_pressure;BME280_temperature;BME280_humidity;BME280_pressure;Samples;Min_cycle;Max_cycle;Signal;HPM_P1;HPM_P2
2022/08/18 00:05:39;;;;;;;14.55;8.55;;;;;;;19.66;85.87;95820.50;5094144;23;20032;-85
2022/08/18 00:08:06;;;;;;;19.60;10.35;;;;;;;19.76;85.12;95826.06;5269617;23;20034;-76
2022/08/18 00:15:26;;;;;;;48.70;14.10;;;;;;;20.03;84.61;95823.75;5108930;23;20045;-78
2022/08/18 00:17:53;;;;;;;11.63;7.25;;;;;;;20.07;84.43;95826.53;5036818;28;20054;-88
2022/08/18 00:20:22;;;;;;;24.88;10.63;;;;;;;20.06;84.54;95825.75;5036445;28;20054;-88
2022/08/18 00:22:51;;;;;;;15.20;9.25;;;;;;;19.99;84.88;95825.75;5038063;28;20105;-88
2022/08/18 00:27:55;;;;;;;12.43;8.98;;;;;;;20.07;83.65;95841.13;5628942;23;20051;-88
2022/08/18 00:30:42;;;;;;;44.85;11.13;;;;;;;20.04;83.75;95836.38;5503706;23;20656;-79
2022/08/18 00:33:09;;;;;;;20.45;10.52;;;;;;;20.02;83.70;95855.34;5090943;23;20074;-86
2022/08/18 00:35:38;;;;;;;14.18;8.50;;;;;;;20.02;83.25;95858.09;5048646;28;20045;-88
2022/08/18 00:43:32;;;;;;;12.02;8.15;;;;;;;19.74;84.76;95860.78;5888252;23;20026;-88
2022/08/18 00:45:59;;;;;;;11.35;7.82;;;;;;;19.82;84.30;95865.16;5035828;28;20060;-87
2022/08/18 00:48:26;;;;;;;12.80;8.27;;;;;;;19.84;84.34;95854.50;5034476;28;20041;-88
2022/08/18 00:50:56;;;;;;;13.23;8.75;;;;;;;19.78;84.24;95845.00;5039552;28;20127;-88
2022/08/18 00:58:46;;;;;;;107.60;31.67;;;;;;;19.73;84.43;95846.19;6030716;23;20051;-79
2022/08/18 01:03:40;;;;;;;11.98;8.32;;;;;;;19.53;85.35;95845.69;5823263;23;20061;-88
2022/08/18 01:06:14;;;;;;;22.25;10.95;;;;;;;19.45;85.62;95848.78;5034470;28;20109;-83
2022/08/18 01:08:41;;;;;;;10.13;8.48;;;;;;;19.45;85.96;95854.31;5093271;23;20046;-88
2022/08/18 01:11:09;;;;;;;14.25;9.70;;;;;;;19.09;88.12;95858.84;5034091;28;20046;-84
2022/08/18 01:21:50;;;;;;;42.28;18.92;;;;;;;19.17;87.42;95849.44;6025283;23;20015;-87
2022/08/18 01:25:58;;;;;;;13.65;9.65;;;;;;;19.22;87.77;95863.69;5035304;28;20137;-88
2022/08/18 01:27:30;;;;;;;20.50;12.35;;;;;;;19.28;87.85;95864.09;5035112;28;20114;-85
2022/08/18 01:30:02;;;;;;;14.52;10.98;;;;;;;19.01;88.77;95858.81;5036097;28;20080;-87
2022/08/18 01:34:59;;;;;;;15.52;10.93;;;;;;;18.34;94.50;95870.09;5872550;23;20030;-77
2022/08/18 01:39:53;;;;;;;18.60;12.02;;;;;;;18.28;96.20;95871.59;5260063;23;20062;-87
2022/08/18 01:42:20;;;;;;;20.77;13.20;;;;;;;18.28;96.50;95860.59;5013303;28;20094;-87
2022/08/18 01:44:50;;;;;;;15.15;11.32;;;;;;;18.35;96.65;95854.34;5014269;28;20050;-88
2022/08/18 01:47:19;;;;;;;25.77;14.18;;;;;;;18.35;96.53;95859.84;4996452;28;20038;-86
2022/08/18 01:52:21;;;;;;;16.02;11.40;;;;;;;18.51;94.89;95861.16;5503267;23;20084;-86
2022/08/18 02:02:31;;;;;;;22.80;11.90;;;;;;;18.46;95.44;95872.53;5387673;23;20046;-87
2022/08/18 02:05:02;;;;;;;18.48;10.52;;;;;;;18.58;94.71;95884.44;5033270;28;20076;-88
2022/08/18 02:07:29;;;;;;;15.60;11.15;;;;;;;18.51;94.39;95879.69;5037462;28;20041;-84
2022/08/18 02:09:57;;;;;;;13.82;10.05;;;;;;;18.50;94.50;95884.41;5209746;23;20064;-81
2022/08/18 02:14:58;;;;;;;13.60;10.30;;;;;;;18.58;94.74;95868.69;5563474;23;20046;-87
2022/08/18 02:19:57;;;;;;;13.13;9.27;;;;;;;18.61;92.79;95839.59;5229174;23;20046;-86
2022/08/18 02:24:59;;;;;;;19.08;10.75;;;;;;;18.79;92.07;95840.53;5243078;23;20140;-88
2022/08/18 02:27:31;;;;;;;15.30;9.57;;;;;;;18.82;91.68;95850.78;5036011;28;20054;-88
2022/08/18 02:30:00;;;;;;;14.82;8.77;;;;;;;18.81;91.86;95863.00;5035824;28;20037;-88
2022/08/18 02:35:18;;;;;;;20.50;11.13;;;;;;;18.48;93.47;95864.69;5240674;23;20093;-86
2022/08/18 02:45:37;;;;;;;12.65;8.75;;;;;;;18.42;93.88;95859.91;5837103;23;20030;-88
2022/08/18 02:48:04;;;;;;;14.82;8.77;;;;;;;18.52;93.24;95865.50;5034883;28;20049;-76
2022/08/18 02:52:57;;;;;;;13.68;8.57;;;;;;;18.35;93.33;95866.16;5333734;23;20057;-88
2022/08/18 02:55:25;;;;;;;10.93;8.43;;;;;;;18.42;93.05;95860.69;5036029;28;20041;-88
2022/08/18 03:00:21;;;;;;;14.65;8.70;;;;;;;18.44;93.09;95846.53;5565713;23;20046;-87
2022/08/18 03:02:50;;;;;;;12.93;8.60;;;;;;;18.39;92.51;95860.69;5032763;28;20042;-88
2022/08/18 03:05:18;;;;;;;14.70;9.23;;;;;;;18.37;92.54;95858.28;5031433;28;20062;-87
2022/08/18 03:07:46;;;;;;;11.45;7.57;;;;;;;18.42;92.18;95860.69;5012835;28;20056;-88
2022/08/18 03:10:15;;;;;;;19.90;10.52;;;;;;;18.50;91.49;95859.59;5032447;28;20046;-88
2022/08/18 03:12:42;;;;;;;15.27;9.82;;;;;;;18.45;91.16;95854.44;5034336;28;20060;-87
2022/08/18 03:15:11;;;;;;;14.18;8.73;;;;;;;18.49;91.44;95871.00;5437432;23;20046;-85
2022/08/18 03:17:38;;;;;;;11.02;7.53;;;;;;;18.55;91.19;95860.41;5275628;23;20028;-89
2022/08/18 03:20:06;;;;;;;11.50;7.90;;;;;;;18.48;91.00;95853.69;5054978;28;20049;-80
2022/08/18 03:22:33;;;;;;;11.98;7.68;;;;;;;18.57;90.32;95858.06;5039538;28;20044;-88
2022/08/18 03:30:26;;;;;;;11.55;7.63;;;;;;;18.58;89.43;95862.41;5848766;23;20035;-88
2022/08/18 03:32:52;;;;;;;10.85;7.70;;;;;;;18.55;89.18;95868.69;5016681;28;20054;-88
2022/08/18 03:45:32;;;;;;;39.97;10.45;;;;;;;18.25;91.72;95864.09;6116482;23;20904;-76
2022/08/18 03:47:59;;;;;;;11.77;8.05;;;;;;;18.36;90.60;95864.97;5034039;28;20084;-88
2022/08/18 03:50:27;;;;;;;12.20;8.55;;;;;;;18.38;89.61;95865.41;5200860;23;20046;-88
2022/08/18 03:52:54;;;;;;;11.38;8.13;;;;;;;18.36;90.01;95864.19;5014294;28;20125;-87
2022/08/18 03:58:02;;;;;;;13.77;9.02;;;;;;;18.18;90.53;95862.06;5038756;23;20065;-88
2022/08/18 04:00:32;;;;;;;11.98;8.20;;;;;;;18.22;90.69;95859.34;5032871;28;20118;-88
2022/08/18 04:03:02;;;;;;;15.48;9.15;;;;;;;18.23;90.23;95858.16;5032302;28;20076;-87
2022/08/18 04:08:19;;;;;;;21.50;11.52;;;;;;;18.12;90.79;95858.06;5618920;23;20026;-86
2022/08/18 04:16:00;;;;;;;13.10;9.25;;;;;;;18.16;90.26;95847.84;5391755;23;20026;-87
2022/08/18 04:18:30;;;;;;;13.45;8.73;;;;;;;17.98;91.20;95842.19;5012047;28;20497;-85
2022/08/18 04:21:01;;;;;;;12.55;9.43;;;;;;;18.03;91.28;95834.75;5115409;23;20129;-88
2022/08/18 04:23:28;;;;;;;12.52;9.35;;;;;;;18.08;91.01;95848.19;5410834;23;20409;-89
2022/08/18 04:28:20;;;;;;;103.53;37.42;;;;;;;17.65;93.69;95858.72;5144231;23;20009;-87
2022/08/18 04:30:47;;;;;;;89.22;30.05;;;;;;;17.43;95.57;95863.16;5370934;23;20045;-87
2022/08/18 04:35:40;;;;;;;18.00;10.73;;;;;;;17.43;96.64;95844.66;5122213;23;20037;-87
2022/08/18 04:38:08;;;;;;;23.25;13.20;;;;;;;17.54;95.94;95833.00;5038168;28;20038;-79
2022/08/18 05:04:17;;;;;;;16.70;10.73;;;;;;;18.21;91.57;95838.44;5402131;23;20101;-88
2022/08/18 05:06:46;;;;;;;13.23;9.80;;;;;;;18.24;91.37;95843.22;4999325;28;20061;-88
2022/08/18 05:09:15;;;;;;;19.65;11.27;;;;;;;18.31;91.48;95848.78;5016937;28;20127;-78
2022/08/18 05:11:54;;;;;;;69.93;25.63;;;;;;;18.33;90.86;95857.47;5318746;23;20721;-78
2022/08/18 05:14:21;;;;;;;23.77;12.35;;;;;;;18.34;90.37;95863.78;5382059;23;20053;-87
2022/08/18 05:16:48;;;;;;;11.65;9.02;;;;;;;18.40;90.08;95862.25;5036137;28;20068;-89
2022/08/18 05:19:15;;;;;;;23.42;12.73;;;;;;;18.29;90.41;95861.38;5057929;23;20042;-80
2022/08/18 05:24:30;;;;;;;20.25;11.38;;;;;;;18.17;92.09;95865.22;5694596;23;20401;-78
2022/08/18 05:26:56;;;;;;;22.17;12.13;;;;;;;17.90;94.25;95862.53;5012037;28;20133;-77
2022/08/18 05:29:23;;;;;;;20.73;12.60;;;;;;;17.95;94.26;95867.72;5011485;28;20049;-77
2022/08/18 05:31:50;;;;;;;21.10;10.95;;;;;;;18.09;93.15;95858.03;5011840;28;20424;-78
2022/08/18 05:34:18;;;;;;;19.70;11.70;;;;;;;18.12;92.99;95865.56;5011338;28;20054;-77
2022/08/18 05:36:57;;;;;;;18.75;10.85;;;;;;;18.22;93.01;95870.38;5011993;28;20520;-77
2022/08/18 05:39:28;;;;;;;20.58;10.73;;;;;;;18.28;92.54;95870.81;5012413;28;20042;-78
2022/08/18 05:42:04;;;;;;;19.80;10.65;;;;;;;18.24;92.64;95879.03;5015069;28;20050;-77
2022/08/18 05:44:34;;;;;;;18.40;11.35;;;;;;;18.44;91.91;95880.41;5014276;28;20038;-77
2022/08/18 05:47:05;;;;;;;17.60;10.20;;;;;;;18.46;90.99;95878.06;5011614;28;20094;-77
2022/08/18 05:49:34;;;;;;;20.83;10.95;;;;;;;18.34;90.47;95881.09;5011448;28;20405;-77
2022/08/18 05:52:05;;;;;;;20.00;10.77;;;;;;;18.40;90.44;95879.59;5011337;28;20421;-77
2022/08/18 05:57:27;;;;;;;14.80;8.75;;;;;;;18.68;90.06;95872.75;5011167;28;20053;-77
2022/08/18 05:59:54;;;;;;;16.30;8.85;;;;;;;18.70;90.17;95875.94;5011576;28;20054;-78
2022/08/18 06:02:32;;;;;;;16.75;9.13;;;;;;;18.81;89.56;95882.31;5010991;28;20077;-77
2022/08/18 06:05:04;;;;;;;17.83;9.65;;;;;;;18.77;88.15;95893.31;5011485;28;20050;-77
2022/08/18 06:07:36;;;;;;;15.38;9.43;;;;;;;18.63;89.82;95908.91;5011228;28;20406;-77
2022/08/18 06:10:06;;;;;;;18.73;9.20;;;;;;;18.79;89.50;95912.25;5010864;28;20072;-78
2022/08/18 06:12:37;;;;;;;16.48;9.95;;;;;;;18.87;88.38;95924.13;5011411;28;20046;-77
2022/08/18 06:15:10;;;;;;;17.73;9.38;;;;;;;18.70;89.55;95928.34;5010856;28;20053;-78
2022/08/18 06:18:08;;;;;;;18.75;10.30;;;;;;;18.52;89.83;95926.16;5011213;28;20038;-77
2022/08/18 06:20:46;;;;;;;18.08;9.45;;;;;;;18.76;90.08;95908.28;4996407;28;20041;-77
2022/08/18 06:23:26;;;;;;;20.65;9.35;;;;;;;18.78;89.32;95908.69;5010117;28;20065;-77
2022/08/18 06:26:04;;;;;;;19.17;9.63;;;;;;;19.02;88.63;95901.78;5010696;28;20042;-77
2022/08/18 06:28:46;;;;;;;13.77;8.68;;;;;;;19.18;87.37;95900.72;5010605;28;20415;-77
2022/08/18 06:31:17;;;;;;;17.77;8.68;;;;;;;19.22;87.22;95905.09;5010409;28;20049;-77
2022/08/18 06:33:52;;;;;;;16.08;8.73;;;;;;;19.23;88.15;95911.38;5010900;28;20050;-78
2022/08/18 06:36:33;;;;;;;14.32;8.48;;;;;;;19.21;87.59;95908.19;5010205;28;20410;-77
2022/08/18 06:39:05;;;;;;;14.98;8.13;;;;;;;19.41;86.78;95920.56;5010757;28;20065;-77
2022/08/18 06:41:38;;;;;;;13.35;7.90;;;;;;;19.53;86.40;95923.00;5010530;28;20485;-77
2022/08/18 06:44:08;;;;;;;17.38;9.40;;;;;;;19.57;85.81;95914.72;5010284;28;20072;-78
2022/08/18 06:46:48;;;;;;;16.38;9.13;;;;;;;19.65;86.03;95912.84;5010835;28;20436;-77
2022/08/18 06:49:24;;;;;;;16.15;9.15;;;;;;;19.53;85.08;95905.66;5009898;28;20046;-77
2022/08/18 06:51:50;;;;;;;16.48;8.80;;;;;;;19.55;85.57;95898.56;5010502;28;20069;-78
2022/08/18 06:54:29;;;;;;;15.82;9.15;;;;;;;19.59;85.82;95900.56;5076268;23;20363;-80
2022/08/18 06:57:01;;;;;;;11.95;8.07;;;;;;;19.68;85.59;95889.94;5013379;28;20490;-81
2022/08/18 06:59:31;;;;;;;12.27;8.18;;;;;;;19.74;85.82;95882.88;5012719;28;20118;-81
2022/08/18 07:02:01;;;;;;;13.38;8.88;;;;;;;19.84;84.05;95887.66;5016190;28;20058;-80
2022/08/18 07:04:36;;;;;;;11.57;8.50;;;;;;;19.85;84.24;95878.19;5016681;28;20075;-81
2022/08/18 07:07:14;;;;;;;13.38;8.55;;;;;;;19.79;85.33;95875.00;5016519;28;20045;-79
2022/08/18 07:09:41;;;;;;;19.63;9.57;;;;;;;19.74;85.80;95869.88;5017510;28;20057;-81
2022/08/18 07:12:10;;;;;;;16.63;9.35;;;;;;;19.55;85.13;95868.16;5016046;28;20413;-81
2022/08/18 07:14:54;;;;;;;13.98;9.52;;;;;;;19.59;86.49;95859.13;5017487;28;20045;-82
2022/08/18 07:17:25;;;;;;;15.57;9.85;;;;;;;19.66;86.13;95837.06;5013967;28;20052;-81
2022/08/18 07:20:02;;;;;;;12.52;8.98;;;;;;;19.76;86.38;95828.81;5017775;28;20062;-81
2022/08/18 07:22:30;;;;;;;14.10;9.57;;;;;;;19.65;86.21;95827.22;5017503;28;21396;-83
2022/08/18 07:25:00;;;;;;;15.95;10.20;;;;;;;19.62;86.74;95830.75;5016306;28;20046;-81
2022/08/18 07:27:44;;;;;;;16.77;10.73;;;;;;;19.64;88.65;95828.41;5018017;28;20125;-83
2022/08/18 07:30:14;;;;;;;15.00;10.73;;;;;;;19.63;87.45;95838.66;5007167;28;20050;-83
2022/08/18 07:32:47;;;;;;;16.85;11.30;;;;;;;19.80;88.07;95854.50;5004480;28;20144;-81
2022/08/18 07:35:18;;;;;;;17.77;10.70;;;;;;;19.79;86.06;95857.66;5016991;28;20053;-82
2022/08/18 07:37:52;;;;;;;16.42;10.48;;;;;;;20.00;86.14;95856.91;5019396;28;20042;-79
2022/08/18 07:40:25;;;;;;;18.73;11.30;;;;;;;20.25;85.31;95854.97;4997421;28;20650;-80
2022/08/18 07:42:58;;;;;;;15.63;10.68;;;;;;;20.39;85.68;95867.25;5016012;28;20054;-82
2022/08/18 07:45:32;;;;;;;19.25;11.32;;;;;;;20.61;84.36;95884.69;5021574;28;20049;-82
2022/08/18 07:48:05;;;;;;;16.75;10.07;;;;;;;21.05;83.33;95885.06;5020482;28;20326;-82
2022/08/18 07:50:40;;;;;;;12.05;9.38;;;;;;;21.48;76.98;95887.78;5019235;28;20485;-82
2022/08/18 07:53:13;;;;;;;15.38;10.15;;;;;;;21.60;76.10;95876.25;5010008;28;20050;-83
2022/08/18 07:55:45;;;;;;;12.77;9.10;;;;;;;21.83;78.86;95867.47;5003038;28;20455;-82
2022/08/18 07:58:24;;;;;;;11.95;8.13;;;;;;;21.97;75.10;95872.13;5002578;28;20053;-83
2022/08/18 08:00:59;;;;;;;10.82;8.32;;;;;;;22.09;73.55;95876.44;4990441;28;20042;-81
2022/08/18 08:03:46;;;;;;;11.60;9.65;;;;;;;22.29;72.30;95862.88;4986573;28;20093;-82
2022/08/18 08:06:22;;;;;;;11.98;9.02;;;;;;;22.22;72.05;95847.06;5006388;28;20054;-81
2022/08/18 08:09:03;;;;;;;13.57;9.32;;;;;;;22.06;72.61;95843.97;5006636;28;20070;-81
2022/08/18 08:11:43;;;;;;;13.02;9.73;;;;;;;22.13;73.65;95832.84;4994200;28;20061;-82
2022/08/18 08:14:40;;;;;;;11.48;10.02;;;;;;;21.77;75.23;95837.78;5002673;28;20046;-81
2022/08/18 08:17:17;;;;;;;16.40;11.27;;;;;;;21.96;74.16;95848.38;5005715;28;20085;-81
2022/08/18 08:19:56;;;;;;;15.55;9.85;;;;;;;22.13;72.28;95842.00;5006098;28;20058;-81
2022/08/18 08:22:30;;;;;;;14.98;9.55;;;;;;;22.58;75.07;95839.28;5004268;28;20050;-81
2022/08/18 08:25:04;;;;;;;15.20;8.93;;;;;;;22.96;66.30;95844.16;5009515;28;20054;-80
2022/08/18 08:27:47;;;;;;;13.13;8.88;;;;;;;22.81;67.01;95849.00;5014959;28;20454;-83
2022/08/18 08:30:16;;;;;;;16.05;9.07;;;;;;;22.72;68.34;95835.63;5016939;28;20042;-81
2022/08/18 08:32:56;;;;;;;13.30;8.05;;;;;;;22.89;69.77;95840.25;5020163;28;20060;-83
2022/08/18 08:35:33;;;;;;;14.55;7.95;;;;;;;23.10;67.81;95832.91;5017027;28;20046;-82
2022/08/18 08:38:07;;;;;;;12.93;7.20;;;;;;;23.16;66.14;95825.69;5001131;28;20054;-81
2022/08/18 08:40:44;;;;;;;11.43;7.10;;;;;;;23.25;66.43;95828.78;5016303;28;20100;-81
2022/08/18 08:43:15;;;;;;;13.68;7.63;;;;;;;23.20;64.53;95826.44;5015614;28;20117;-80
2022/08/18 08:45:47;;;;;;;15.90;7.63;;;;;;;22.85;64.13;95822.00;5017282;28;20049;-83
2022/08/18 08:48:20;;;;;;;10.73;7.57;;;;;;;22.89;65.53;95808.91;4998410;28;20050;-81
2022/08/18 08:50:51;;;;;;;12.75;7.80;;;;;;;22.84;67.18;95810.13;5006667;28;20488;-82
2022/08/18 08:53:23;;;;;;;14.13;7.57;;;;;;;22.82;66.12;95811.75;5013394;28;20058;-81
2022/08/18 08:55:53;;;;;;;;;;;;;;;22.91;64.82;95817.59;5009615;28;20050;-82
2022/08/18 08:58:24;;;;;;;12.90;7.65;;;;;;;22.97;66.23;95816.00;5021124;28;19980;-81
2022/08/18 09:00:52;;;;;;;12.65;7.60;;;;;;;22.91;65.64;95817.59;5009588;28;20069;-82
2022/08/18 09:03:40;;;;;;;11.80;7.40;;;;;;;23.08;66.07;95808.34;5020625;28;20041;-83
2022/08/18 09:06:21;;;;;;;10.63;7.07;;;;;;;23.28;64.38;95822.38;5018816;28;20042;-81
2022/08/18 09:09:08;;;;;;;11.30;7.30;;;;;;;23.28;64.69;95818.81;5018759;28;20050;-82
2022/08/18 09:11:52;;;;;;;13.27;7.82;;;;;;;23.14;62.07;95806.69;5016474;28;20053;-81
2022/08/18 09:14:51;;;;;;;10.52;7.35;;;;;;;23.32;63.05;95808.47;5019218;28;20497;-82
2022/08/18 09:17:39;;;;;;;15.65;7.88;;;;;;;23.67;62.19;95819.19;5011977;28;20038;-84
2022/08/18 09:20:21;;;;;;;15.23;8.77;;;;;;;23.92;59.69;95820.88;5012320;28;20057;-81
2022/08/18 09:22:52;;;;;;;11.57;8.50;;;;;;;24.18;60.35;95822.09;5007781;28;20049;-83
2022/08/18 09:25:46;;;;;;;14.02;8.43;;;;;;;24.35;60.39;95814.69;5019076;28;20096;-82
2022/08/18 09:28:15;;;;;;;13.32;7.10;;;;;;;24.66;58.57;95796.69;5021706;28;20049;-82
2022/08/18 09:30:52;;;;;;;9.63;6.53;;;;;;;24.91;58.16;95789.91;5013466;28;20042;-81
2022/08/18 09:33:33;;;;;;;9.32;6.68;;;;;;;25.04;55.34;95793.66;5022834;28;20042;-83
2022/08/18 09:36:16;;;;;;;11.75;7.22;;;;;;;24.95;55.27;95804.53;5007236;28;20046;-83
2022/08/18 09:41:46;;;;;;;13.60;7.78;;;;;;;24.90;56.32;95810.59;5025160;23;20037;-82
2022/08/18 09:44:34;;;;;;;17.42;8.32;;;;;;;25.24;58.55;95802.84;5017131;28;20049;-82
2022/08/18 09:47:02;;;;;;;13.15;7.47;;;;;;;25.00;56.64;95801.28;5000293;28;20046;-83
2022/08/18 09:49:45;;;;;;;12.02;7.63;;;;;;;25.08;56.18;95791.63;4991386;28;20104;-83
2022/08/18 09:52:52;;;;;;;12.77;7.53;;;;;;;25.35;56.21;95790.72;4999891;28;20078;-81
2022/08/18 09:55:42;;;;;;;13.40;7.70;;;;;;;25.67;54.42;95790.06;4993575;28;20043;-82
2022/08/18 09:58:19;;;;;;;11.52;6.78;;;;;;;25.85;53.02;95803.66;5000955;28;20096;-81
2022/08/18 10:01:05;;;;;;;17.40;8.40;;;;;;;25.84;52.85;95811.25;5005019;28;20046;-83
2022/08/18 10:03:33;;;;;;;15.43;9.23;;;;;;;25.79;51.83;95803.38;5000425;28;20047;-82
2022/08/18 10:06:14;;;;;;;12.00;7.20;;;;;;;25.64;55.42;95777.78;4999859;28;20043;-82
2022/08/18 10:09:15;;;;;;;11.15;6.93;;;;;;;25.80;54.96;95781.84;5002006;28;20501;-83
2022/08/18 10:12:12;;;;;;;10.15;6.95;;;;;;;25.90;53.10;95792.00;4997809;28;20038;-83
2022/08/18 10:14:56;;;;;;;12.77;7.15;;;;;;;25.62;50.19;95798.91;4995043;28;20070;-81
2022/08/18 10:17:48;;;;;;;9.90;6.55;;;;;;;25.75;51.95;95792.31;4999280;28;20057;-83
2022/08/18 10:20:37;;;;;;;11.57;6.95;;;;;;;25.51;51.81;95790.78;4983107;28;20050;-81
2022/08/18 10:23:06;;;;;;;13.45;7.00;;;;;;;25.64;50.45;95786.13;4992646;28;20090;-81
2022/08/18 10:25:37;;;;;;;15.50;8.57;;;;;;;25.49;51.42;95784.84;4984498;28;20117;-80
2022/08/18 10:28:05;;;;;;;13.15;6.80;;;;;;;25.52;51.81;95797.91;4994849;28;20056;-83
2022/08/18 10:35:59;;;;;;;23.67;10.45;;;;;;;25.25;52.65;95809.19;5392546;23;20042;-85
2022/08/18 10:38:38;;;;;;;15.90;7.70;;;;;;;25.50;56.12;95808.72;5007505;28;20497;-87
2022/08/18 10:41:08;;;;;;;16.92;9.18;;;;;;;25.48;54.07;95816.75;5001581;28;20068;-86
2022/08/18 10:43:40;;;;;;;18.27;8.32;;;;;;;25.54;55.15;95815.03;5008992;28;20125;-85
2022/08/18 10:46:16;;;;;;;18.15;9.25;;;;;;;25.61;54.89;95806.50;5015603;28;20045;-85
2022/08/18 10:48:43;;;;;;;17.63;8.07;;;;;;;25.62;55.18;95810.84;5012611;28;20096;-87
2022/08/18 10:51:19;;;;;;;14.82;7.70;;;;;;;25.42;54.70;95805.31;5022673;28;20038;-86
2022/08/18 10:53:51;;;;;;;19.15;9.15;;;;;;;25.41;52.24;95789.00;5017879;28;20048;-87
2022/08/18 10:56:29;;;;;;;19.85;9.05;;;;;;;25.37;53.44;95782.69;5009936;28;20046;-87
2022/08/18 10:59:08;;;;;;;18.17;7.60;;;;;;;25.57;54.79;95775.13;5002602;28;20045;-86
2022/08/18 11:02:00;;;;;;;18.65;8.20;;;;;;;25.61;53.92;95780.63;5005228;28;20038;-88
2022/08/18 11:04:30;;;;;;;17.58;7.45;;;;;;;25.81;53.16;95773.06;5005053;28;20065;-87
2022/08/18 11:07:08;;;;;;;17.65;8.20;;;;;;;25.67;51.34;95768.53;5008722;28;20064;-87
2022/08/18 11:09:36;;;;;;;19.38;8.25;;;;;;;25.77;50.31;95761.97;5000358;28;20041;-87
2022/08/18 11:12:04;;;;;;;21.77;9.40;;;;;;;25.78;51.36;95779.47;5005779;28;20054;-87
2022/08/18 11:14:52;;;;;;;18.85;9.20;;;;;;;25.61;51.79;95767.47;5009099;28;20049;-88
2022/08/18 11:17:35;;;;;;;19.27;8.70;;;;;;;25.46;50.58;95768.97;4996339;28;20050;-87
2022/08/18 11:20:08;;;;;;;19.15;8.02;;;;;;;25.54;52.33;95775.22;4999111;28;20042;-86
2022/08/18 11:22:37;;;;;;;21.67;8.48;;;;;;;25.52;51.63;95768.03;5006300;28;20053;-87
2022/08/18 11:25:21;;;;;;;19.23;8.70;;;;;;;25.43;52.14;95762.28;5005896;28;20497;-88
2022/08/18 11:27:49;;;;;;;16.20;7.07;;;;;;;25.50;52.69;95769.69;5007094;28;20044;-87
2022/08/18 11:30:17;;;;;;;19.10;7.95;;;;;;;25.66;52.36;95769.75;5009333;28;20061;-86
2022/08/18 11:32:44;;;;;;;18.33;7.47;;;;;;;25.73;52.84;95760.44;5006726;28;20546;-88
2022/08/18 11:35:15;;;;;;;20.52;8.73;;;;;;;25.84;51.62;95763.03;5005682;28;20424;-87
2022/08/18 11:37:48;;;;;;;14.73;7.30;;;;;;;25.75;51.80;95753.25;5009384;28;20097;-87
2022/08/18 11:40:36;;;;;;;20.27;8.35;;;;;;;25.77;52.13;95742.44;5012816;28;20045;-88
2022/08/18 11:43:10;;;;;;;18.30;7.75;;;;;;;25.70;50.85;95734.22;5009913;28;20050;-88
2022/08/18 11:45:51;;;;;;;18.30;7.45;;;;;;;25.64;52.14;95733.16;5020965;28;20118;-87
2022/08/18 11:48:21;;;;;;;17.63;8.13;;;;;;;25.63;52.22;95730.78;5012127;28;20100;-88
2022/08/18 11:50:58;;;;;;;16.75;8.15;;;;;;;25.71;51.52;95727.41;5016206;28;20041;-87
2022/08/18 11:53:37;;;;;;;17.60;7.72;;;;;;;25.62;51.33;95727.22;5011948;28;20088;-87
2022/08/18 11:56:14;;;;;;;13.80;6.75;;;;;;;25.70;53.28;95711.91;5010906;28;20042;-86
2022/08/18 11:58:43;;;;;;;12.80;5.88;;;;;;;25.77;51.71;95689.47;5011032;28;20050;-88
2022/08/18 12:01:10;;;;;;;17.15;6.90;;;;;;;25.75;50.30;95685.56;5012985;28;20050;-87
2022/08/18 12:03:41;;;;;;;18.33;6.68;;;;;;;25.83;50.70;95686.94;5013382;28;20053;-87
2022/08/18 12:06:18;;;;;;;16.20;7.70;;;;;;;25.92;50.63;95678.75;5012895;28;20056;-87
2022/08/18 12:08:54;;;;;;;17.20;7.32;;;;;;;25.98;51.58;95659.50;5013534;28;20113;-86
2022/08/18 12:11:24;;;;;;;21.23;8.27;;;;;;;26.01;53.23;95641.91;5012994;28;20050;-87
2022/08/18 12:14:02;;;;;;;16.00;7.07;;;;;;;26.12;52.34;95645.22;5013581;28;20048;-85
2022/08/18 12:16:35;;;;;;;18.50;7.70;;;;;;;26.19;50.90;95636.66;5013564;28;20145;-88
2022/08/18 12:19:02;;;;;;;18.95;7.63;;;;;;;26.27;51.92;95638.03;5014287;28;20050;-88
2022/08/18 12:21:29;;;;;;;21.55;8.65;;;;;;;26.34;51.48;95636.28;5018410;28;20512;-87
2022/08/18 12:23:57;;;;;;;18.63;7.63;;;;;;;26.47;51.04;95628.81;5012294;28;20054;-86
2022/08/18 12:26:23;;;;;;;19.08;7.72;;;;;;;26.47;50.16;95651.13;5012347;28;20052;-88
2022/08/18 12:28:50;;;;;;;17.83;7.68;;;;;;;26.45;49.96;95650.78;5013343;28;20057;-87
2022/08/18 12:31:16;;;;;;;21.83;7.82;;;;;;;26.50;50.15;95661.41;5012170;28;20041;-86
2022/08/18 12:33:43;;;;;;;18.35;7.78;;;;;;;26.57;50.51;95664.00;5012802;28;20061;-88
2022/08/18 12:36:09;;;;;;;17.30;7.22;;;;;;;26.55;48.60;95680.41;5012354;28;20046;-79
2022/08/18 12:38:36;;;;;;;18.58;7.88;;;;;;;26.49;47.16;95684.97;5012950;28;20046;-78
2022/08/18 12:41:05;;;;;;;15.18;7.13;;;;;;;26.53;49.95;95680.09;5012127;28;20515;-82
2022/08/18 12:43:31;;;;;;;18.55;7.05;;;;;;;26.56;48.36;95670.81;5012217;28;20556;-88
2022/08/18 12:45:58;;;;;;;15.88;6.97;;;;;;;26.57;48.78;95658.41;5012712;28;20108;-88
2022/08/18 12:48:30;;;;;;;21.13;7.57;;;;;;;26.68;49.53;95655.38;5010941;28;20044;-85
2022/08/18 12:50:57;;;;;;;16.67;6.57;;;;;;;26.65;49.93;95637.47;5012647;28;20046;-88
2022/08/18 12:53:28;;;;;;;23.80;8.05;;;;;;;26.84;47.02;95641.34;4999942;28;20042;-86
2022/08/18 12:55:55;;;;;;;18.95;6.97;;;;;;;26.79;47.22;95645.47;4993054;28;20042;-86
2022/08/18 12:58:23;;;;;;;19.50;7.53;;;;;;;26.79;48.38;95670.59;4991364;28;20104;-87
2022/08/18 13:00:50;;;;;;;14.50;6.03;;;;;;;26.89;47.56;95665.16;4992833;28;20069;-87
2022/08/18 13:03:18;;;;;;;18.30;7.50;;;;;;;26.88;48.77;95672.72;4992024;28;20532;-89
2022/08/18 13:05:46;;;;;;;16.70;6.60;;;;;;;26.90;49.12;95675.88;4992552;28;20196;-88
2022/08/18 13:08:20;;;;;;;13.90;6.53;;;;;;;26.87;47.90;95668.38;5001824;28;20144;-88
2022/08/18 13:10:48;;;;;;;18.35;6.63;;;;;;;26.88;48.08;95652.41;5004211;28;20084;-88
2022/08/18 13:13:18;;;;;;;15.65;6.50;;;;;;;26.87;48.38;95650.84;4991785;28;20113;-88
2022/08/18 13:15:47;;;;;;;14.82;6.50;;;;;;;26.78;49.25;95643.91;4992085;28;20054;-89
2022/08/18 13:18:14;;;;;;;12.98;5.85;;;;;;;26.86;49.18;95638.09;4991687;28;20042;-88
2022/08/18 13:20:40;;;;;;;10.85;5.85;;;;;;;26.77;49.12;95647.88;4992262;28;20089;-89
2022/08/18 13:23:07;;;;;;;16.23;7.10;;;;;;;26.84;48.76;95652.53;4998807;28;20049;-88
2022/08/18 13:25:34;;;;;;;12.45;6.00;;;;;;;26.79;48.72;95637.09;5012092;28;20056;-88
2022/08/18 13:28:00;;;;;;;13.82;6.43;;;;;;;26.76;49.37;95618.41;5011714;28;20050;-88
2022/08/18 13:30:27;;;;;;;16.25;6.65;;;;;;;26.68;50.23;95608.66;5011393;28;20484;-88
2022/08/18 13:32:55;;;;;;;12.70;5.68;;;;;;;26.65;50.65;95606.75;5011487;28;20050;-88
2022/08/18 13:35:22;;;;;;;13.60;6.18;;;;;;;26.57;51.10;95605.38;5012019;28;20061;-90
2022/08/18 13:37:48;;;;;;;17.33;6.88;;;;;;;26.51;51.25;95604.34;5012278;28;20046;-88
2022/08/18 13:40:15;;;;;;;14.95;6.65;;;;;;;26.43;50.00;95605.78;4997455;28;20549;-87
2022/08/18 13:42:44;;;;;;;19.27;6.38;;;;;;;26.36;51.02;95611.50;4992282;28;20060;-88
2022/08/18 13:45:13;;;;;;;18.88;7.38;;;;;;;26.20;50.75;95610.31;4991889;28;20085;-88
2022/08/18 13:47:41;;;;;;;15.10;6.95;;;;;;;26.09;51.46;95604.22;4997016;28;20050;-87
2022/08/18 13:50:10;;;;;;;16.08;7.60;;;;;;;26.05;51.75;95608.31;4998183;28;20074;-87
2022/08/18 13:52:37;;;;;;;19.88;7.78;;;;;;;26.01;52.28;95616.78;4991896;28;20057;-89
2022/08/18 13:55:05;;;;;;;15.75;7.05;;;;;;;26.05;52.04;95625.88;4991487;28;20050;-88
2022/08/18 13:57:32;;;;;;;19.60;7.50;;;;;;;26.04;52.60;95627.06;4991394;28;20046;-89
2022/08/18 13:59:58;;;;;;;19.23;7.90;;;;;;;26.04;53.20;95635.44;4990914;28;20052;-88
2022/08/18 14:02:25;;;;;;;20.05;7.90;;;;;;;26.09;52.27;95636.91;4991166;28;20043;-88
2022/08/18 14:04:54;;;;;;;20.65;8.43;;;;;;;25.95;52.60;95633.28;4991669;28;20536;-88
2022/08/18 14:07:22;;;;;;;19.40;8.57;;;;;;;25.86;52.38;95629.53;4990731;28;20497;-88
2022/08/18 14:09:49;;;;;;;17.63;7.20;;;;;;;25.84;52.69;95620.78;4991742;28;20660;-88